createdAt,value
2023-02-24T00:00:18.047Z,80.16
2023-02-24T00:01:20.570Z,80.21
2023-02-24T00:02:23.225Z,80.23
2023-02-24T00:03:25.370Z,80.25
2023-02-24T00:04:30.103Z,80.17
2023-02-24T00:05:37.941Z,80.29
2023-02-24T00:06:41.861Z,80.22
2023-02-24T00:07:45.424Z,80.36
2023-02-24T00:08:47.335Z,80.36
2023-02-24T00:09:49.534Z,80.41
2023-02-24T00:10:51.736Z,80.39
2023-02-24T00:11:56.124Z,80.36
2023-02-24T00:12:58.563Z,80.37
2023-02-24T00:14:00.453Z,80.37
2023-02-24T00:15:02.616Z,80.36
2023-02-24T00:16:05.845Z,80.43
2023-02-24T00:17:11.729Z,80.45
2023-02-24T00:18:13.726Z,80.56
2023-02-24T00:19:18.131Z,80.60
2023-02-24T00:20:20.865Z,80.62
2023-02-24T00:21:23.375Z,80.72
2023-02-24T00:22:25.367Z,80.73
2023-02-24T00:23:27.260Z,80.69
2023-02-24T00:24:30.493Z,80.65
2023-02-24T00:25:32.493Z,80.73
2023-02-24T00:26:35.192Z,80.78
2023-02-24T00:27:37.661Z,80.76
2023-02-24T00:28:40.783Z,80.89
2023-02-24T00:29:45.184Z,80.80
2023-02-24T00:30:47.466Z,80.94
2023-02-24T00:31:51.298Z,80.97
2023-02-24T00:32:53.527Z,81.06
2023-02-24T00:33:58.001Z,81.04
2023-02-24T00:35:00.015Z,81.01
2023-02-24T00:37:19.044Z,81.26
2023-02-24T00:38:21.014Z,81.23
2023-02-24T00:39:24.570Z,81.25
2023-02-24T00:40:26.707Z,81.46
2023-02-24T00:41:31.301Z,81.37
2023-02-24T00:42:33.403Z,81.34
2023-02-24T00:43:35.288Z,81.39
2023-02-24T00:44:46.168Z,81.34
2023-02-24T00:45:48.366Z,81.38
2023-02-24T00:46:50.945Z,81.37
2023-02-24T00:47:52.841Z,81.75
2023-02-24T00:48:54.903Z,81.72
2023-02-24T00:49:56.893Z,81.57
2023-02-24T00:51:00.492Z,81.66
2023-02-24T00:52:04.628Z,81.60
2023-02-24T00:53:06.794Z,81.67
2023-02-24T00:54:10.002Z,81.72
2023-02-24T00:55:12.259Z,82.01
2023-02-24T00:56:14.463Z,81.97
2023-02-24T00:57:17.548Z,81.93
2023-02-24T00:58:19.473Z,82.03
2023-02-24T00:59:21.933Z,82.02
2023-02-24T01:00:23.985Z,82.17
2023-02-24T01:01:29.008Z,82.58
2023-02-24T01:02:31.104Z,82.41
2023-02-24T01:03:33.090Z,82.37
2023-02-24T01:04:36.396Z,82.23
2023-02-24T01:05:38.823Z,82.27
2023-02-24T01:06:44.861Z,82.25
2023-02-24T01:07:46.891Z,82.22
2023-02-24T01:08:52.089Z,82.08
2023-02-24T01:09:54.012Z,82.25
2023-02-24T01:10:58.520Z,82.35
2023-02-24T01:12:00.507Z,82.21
2023-02-24T01:13:02.560Z,82.21
2023-02-24T01:14:06.851Z,82.11
2023-02-24T01:15:11.317Z,82.33
2023-02-24T01:16:14.928Z,82.26
2023-02-24T01:17:18.086Z,82.15
2023-02-24T01:18:21.278Z,82.05
2023-02-24T01:19:29.422Z,82.71
2023-02-24T01:20:31.814Z,82.90
2023-02-24T01:21:34.927Z,82.75
2023-02-24T01:22:36.932Z,82.61
2023-02-24T01:23:38.932Z,82.76
2023-02-24T01:24:43.685Z,82.82
2023-02-24T01:25:46.709Z,82.81
2023-02-24T01:26:49.696Z,83.15
2023-02-24T01:27:51.696Z,82.86
2023-02-24T01:28:54.195Z,82.65
2023-02-24T01:29:56.079Z,82.80
2023-02-24T01:31:02.263Z,82.80
2023-02-24T01:33:17.140Z,82.95
2023-02-24T01:34:19.106Z,82.79
2023-02-24T01:35:20.975Z,82.68
2023-02-24T01:36:25.168Z,82.92
2023-02-24T01:37:29.804Z,83.04
2023-02-24T01:38:31.733Z,83.32
2023-02-24T01:39:33.603Z,83.19
2023-02-24T01:40:35.582Z,83.13
2023-02-24T01:41:40.897Z,83.12
2023-02-24T01:42:42.839Z,83.08
2023-02-24T01:43:54.762Z,83.31
2023-02-24T01:45:06.621Z,83.17
2023-02-24T01:46:09.182Z,83.35
2023-02-24T01:47:12.498Z,83.17
2023-02-24T01:48:14.496Z,83.23
2023-02-24T01:49:23.086Z,83.04
2023-02-24T01:50:29.056Z,82.98
2023-02-24T01:51:34.662Z,83.16
2023-02-24T01:52:37.895Z,83.08
2023-02-24T01:53:40.109Z,83.52
2023-02-24T01:54:45.749Z,83.67
2023-02-24T01:55:50.262Z,83.64
2023-02-24T01:56:54.601Z,83.43
2023-02-24T01:57:59.933Z,83.50
2023-02-24T01:59:02.751Z,83.36
2023-02-24T02:00:11.704Z,83.48
2023-02-24T02:01:16.198Z,83.38
2023-02-24T02:02:21.160Z,83.35
2023-02-24T02:03:35.789Z,83.35
2023-02-24T02:04:44.200Z,83.28
2023-02-24T02:05:47.096Z,83.27
2023-02-24T02:06:51.929Z,83.17
2023-02-24T02:07:55.583Z,83.36
2023-02-24T02:09:00.616Z,83.67
2023-02-24T02:10:03.131Z,83.79
2023-02-24T02:11:09.000Z,83.88
2023-02-24T02:12:12.761Z,83.78
2023-02-24T02:13:18.458Z,83.71
2023-02-24T02:14:23.906Z,83.55
2023-02-24T02:15:28.929Z,83.80
2023-02-24T02:16:40.617Z,83.74
2023-02-24T02:17:50.618Z,83.92
2023-02-24T02:19:18.873Z,83.74
2023-02-24T02:20:51.135Z,83.61
2023-02-24T02:22:03.877Z,84.12
2023-02-24T02:23:12.654Z,84.28
2023-02-24T02:24:30.720Z,84.49
2023-02-24T02:26:01.820Z,84.40
2023-02-24T02:27:32.345Z,84.38
2023-02-24T02:28:38.018Z,84.47
2023-02-24T02:30:19.054Z,84.50
2023-02-24T02:31:37.259Z,84.46
2023-02-24T02:34:12.726Z,84.41
2023-02-24T02:35:17.934Z,84.34
2023-02-24T02:36:29.885Z,84.42
2023-02-24T02:37:41.528Z,84.47
2023-02-24T02:38:48.158Z,84.35
2023-02-24T02:40:12.339Z,84.43
2023-02-24T02:41:23.780Z,84.65
2023-02-24T02:42:33.239Z,84.58
2023-02-24T02:44:06.879Z,84.60
2023-02-24T02:45:24.938Z,84.51
2023-02-24T02:46:33.733Z,84.46
2023-02-24T02:47:49.204Z,84.49
2023-02-24T02:48:54.857Z,84.73
2023-02-24T02:50:10.310Z,84.65
2023-02-24T02:52:35.347Z,84.38
2023-02-24T02:53:44.412Z,84.33
2023-02-24T02:54:56.151Z,84.47
2023-02-24T02:56:05.067Z,84.57
2023-02-24T02:57:13.537Z,84.62
2023-02-24T02:58:20.289Z,84.51
2023-02-24T02:59:25.644Z,84.33
2023-02-24T03:00:34.306Z,84.57
2023-02-24T03:01:39.831Z,84.71
2023-02-24T03:02:45.930Z,84.66
2023-02-24T03:03:54.391Z,84.70
2023-02-24T03:04:59.718Z,84.50
2023-02-24T03:07:22.920Z,84.70
2023-02-24T03:08:28.649Z,84.53
2023-02-24T03:09:34.570Z,84.71
2023-02-24T03:10:39.519Z,84.61
2023-02-24T03:11:44.055Z,84.68
2023-02-24T03:12:49.993Z,84.61
2023-02-24T03:13:55.615Z,84.50
2023-02-24T03:15:01.297Z,84.44
2023-02-24T03:16:04.487Z,84.43
2023-02-24T03:17:10.256Z,84.49
2023-02-24T03:18:16.037Z,84.67
2023-02-24T03:19:21.869Z,84.95
2023-02-24T03:20:27.786Z,84.82
2023-02-24T03:21:33.463Z,84.77
2023-02-24T03:22:39.165Z,84.75
2023-02-24T03:23:47.887Z,84.67
2023-02-24T03:24:50.510Z,84.84
2023-02-24T03:27:12.301Z,84.94
2023-02-24T03:28:23.968Z,84.78
2023-02-24T03:29:44.736Z,84.74
2023-02-24T03:30:50.591Z,84.62
2023-02-24T03:31:56.620Z,84.86
2023-02-24T03:33:11.183Z,84.76
2023-02-24T03:34:26.264Z,84.83
2023-02-24T03:35:40.457Z,84.78
2023-02-24T03:36:42.893Z,84.72
2023-02-24T03:37:45.478Z,84.89
2023-02-24T03:38:47.364Z,84.89
2023-02-24T03:39:49.324Z,85.14
2023-02-24T03:40:51.635Z,85.15
2023-02-24T03:41:57.264Z,85.11
2023-02-24T03:43:05.965Z,84.89
2023-02-24T03:44:10.256Z,84.92
2023-02-24T03:45:13.362Z,85.11
2023-02-24T03:46:17.293Z,84.96
2023-02-24T03:47:19.489Z,85.09
2023-02-24T03:48:22.523Z,85.11
2023-02-24T03:49:24.436Z,84.74
2023-02-24T03:50:26.630Z,84.66
2023-02-24T03:51:29.454Z,84.57
2023-02-24T03:52:41.124Z,84.45
2023-02-24T03:54:07.997Z,84.61
2023-02-24T03:55:25.753Z,84.73
2023-02-24T03:56:37.460Z,84.46
2023-02-24T03:57:57.881Z,84.50
2023-02-24T03:59:09.478Z,84.36
2023-02-24T04:00:16.861Z,84.29
2023-02-24T04:01:42.173Z,84.13
2023-02-24T04:02:49.099Z,84.00
2023-02-24T04:04:00.542Z,84.02
2023-02-24T04:05:12.133Z,84.32
2023-02-24T04:07:37.151Z,84.01
2023-02-24T04:08:49.121Z,83.94
2023-02-24T04:10:06.800Z,84.09
2023-02-24T04:11:30.588Z,83.97
2023-02-24T04:12:51.157Z,83.95
2023-02-24T04:13:56.967Z,83.97
2023-02-24T04:15:11.507Z,83.73
2023-02-24T04:16:18.015Z,83.63
2023-02-24T04:17:30.221Z,83.73
2023-02-24T04:18:32.709Z,83.66
2023-02-24T04:19:38.342Z,83.55
2023-02-24T04:20:41.750Z,83.35
2023-02-24T04:21:46.273Z,83.49
2023-02-24T04:22:51.971Z,83.26
2023-02-24T04:23:55.235Z,83.01
2023-02-24T04:24:59.437Z,83.15
2023-02-24T04:26:02.235Z,83.13
2023-02-24T04:27:07.283Z,83.25
2023-02-24T04:28:11.414Z,83.07
2023-02-24T04:29:17.123Z,83.06
2023-02-24T04:30:20.391Z,82.99
2023-02-24T04:31:26.508Z,83.06
2023-02-24T04:32:30.325Z,83.01
2023-02-24T04:33:33.397Z,83.04
2023-02-24T04:34:35.296Z,82.99
2023-02-24T04:35:38.378Z,82.85
2023-02-24T04:36:40.468Z,82.92
2023-02-24T04:37:43.718Z,82.87
2023-02-24T04:38:46.357Z,82.69
2023-02-24T04:39:50.187Z,82.62
2023-02-24T04:40:52.205Z,82.57
2023-02-24T04:41:54.475Z,82.62
2023-02-24T04:42:56.832Z,82.75
2023-02-24T04:43:58.722Z,82.43
2023-02-24T04:45:00.610Z,82.28
2023-02-24T04:46:04.991Z,82.51
2023-02-24T04:47:11.624Z,82.42
2023-02-24T04:48:14.324Z,82.52
2023-02-24T04:49:19.604Z,82.57
2023-02-24T04:50:24.884Z,82.60
2023-02-24T04:51:26.813Z,82.26
2023-02-24T04:52:28.696Z,82.11
2023-02-24T04:53:30.698Z,82.32
2023-02-24T04:54:32.700Z,82.45
2023-02-24T04:56:50.537Z,82.40
2023-02-24T04:57:52.853Z,82.33
2023-02-24T04:58:55.293Z,82.42
2023-02-24T04:59:57.281Z,82.40
2023-02-24T05:00:59.287Z,82.58
2023-02-24T05:02:01.162Z,82.50
2023-02-24T05:03:05.054Z,82.60
2023-02-24T05:04:09.930Z,82.53
2023-02-24T05:05:12.310Z,82.51
2023-02-24T05:06:17.081Z,82.43
2023-02-24T05:07:19.022Z,82.42
2023-02-24T05:08:20.906Z,82.39
2023-02-24T05:09:23.515Z,82.36
2023-02-24T05:10:25.641Z,82.19
2023-02-24T05:11:27.640Z,82.29
2023-02-24T05:12:31.888Z,82.17
2023-02-24T05:13:34.085Z,82.17
2023-02-24T05:14:36.205Z,82.43
2023-02-24T05:15:40.335Z,82.14
2023-02-24T05:16:43.452Z,82.40
2023-02-24T05:17:45.364Z,82.54
2023-02-24T05:18:47.496Z,82.63
2023-02-24T05:19:49.578Z,82.65
2023-02-24T05:20:54.817Z,82.79
2023-02-24T05:21:59.680Z,82.86
2023-02-24T05:23:01.626Z,82.90
2023-02-24T05:24:04.505Z,82.74
2023-02-24T05:25:07.957Z,82.70
2023-02-24T05:26:16.034Z,82.56
2023-02-24T05:27:18.074Z,82.56
2023-02-24T05:28:21.700Z,82.64
2023-02-24T05:29:29.407Z,82.68
2023-02-24T05:30:32.153Z,82.72
2023-02-24T05:31:36.450Z,82.82
2023-02-24T05:32:38.796Z,82.96
2023-02-24T05:33:43.247Z,82.85
2023-02-24T05:34:45.273Z,82.92
2023-02-24T05:35:48.328Z,82.75
2023-02-24T05:36:50.935Z,82.75
2023-02-24T05:37:53.084Z,82.65
2023-02-24T05:38:56.660Z,82.81
2023-02-24T05:39:59.356Z,82.60
2023-02-24T05:41:08.903Z,82.65
2023-02-24T05:42:10.990Z,82.76
2023-02-24T05:43:14.456Z,82.68
2023-02-24T05:44:19.410Z,82.88
2023-02-24T05:45:21.434Z,82.96
2023-02-24T05:46:26.144Z,82.92
2023-02-24T05:47:28.305Z,82.74
2023-02-24T05:48:31.104Z,82.89
2023-02-24T05:49:35.675Z,83.01
2023-02-24T05:50:37.926Z,82.98
2023-02-24T05:51:42.518Z,83.07
2023-02-24T05:52:44.433Z,83.01
2023-02-24T05:53:46.625Z,83.01
2023-02-24T05:54:48.660Z,82.96
2023-02-24T05:55:50.743Z,83.04
2023-02-24T05:56:52.721Z,82.95
2023-02-24T05:57:54.641Z,82.90
2023-02-24T05:59:01.164Z,82.89
2023-02-24T06:00:04.594Z,82.87
2023-02-24T06:01:11.486Z,83.00
2023-02-24T06:02:16.620Z,83.09
2023-02-24T06:03:18.742Z,83.06
2023-02-24T06:04:20.797Z,82.93
2023-02-24T06:05:22.759Z,82.95
2023-02-24T06:06:26.385Z,82.89
2023-02-24T06:07:30.110Z,82.93
2023-02-24T06:08:32.221Z,82.86
2023-02-24T06:09:34.728Z,82.80
2023-02-24T06:10:38.250Z,83.05
2023-02-24T06:11:42.021Z,83.03
2023-02-24T06:12:44.683Z,83.17
2023-02-24T06:13:47.069Z,83.11
2023-02-24T06:14:48.978Z,82.66
2023-02-24T06:15:55.776Z,82.64
2023-02-24T06:16:57.895Z,82.90
2023-02-24T06:18:00.841Z,82.76
2023-02-24T06:19:04.220Z,82.96
2023-02-24T06:20:08.041Z,83.13
2023-02-24T06:21:10.346Z,83.09
2023-02-24T06:22:14.351Z,83.04
2023-02-24T06:23:16.458Z,83.20
2023-02-24T06:24:18.385Z,82.94
2023-02-24T06:25:21.943Z,83.16
2023-02-24T06:26:25.528Z,83.29
2023-02-24T06:27:27.420Z,83.36
2023-02-24T06:28:30.320Z,83.15
2023-02-24T06:29:32.320Z,83.17
2023-02-24T06:30:35.344Z,83.46
2023-02-24T06:31:37.975Z,83.18
2023-02-24T06:32:40.171Z,83.17
2023-02-24T06:33:42.332Z,83.62
2023-02-24T06:34:45.157Z,83.52
2023-02-24T06:35:47.765Z,83.38
2023-02-24T06:36:50.969Z,83.19
2023-02-24T06:37:53.004Z,83.43
2023-02-24T06:38:55.094Z,83.49
2023-02-24T06:39:57.079Z,83.33
2023-02-24T06:41:00.452Z,83.34
2023-02-24T06:42:04.748Z,83.35
2023-02-24T06:43:08.674Z,83.60
2023-02-24T06:44:10.909Z,83.50
2023-02-24T06:45:14.401Z,83.66
2023-02-24T06:46:17.008Z,83.61
2023-02-24T06:47:19.046Z,83.56
2023-02-24T06:48:21.067Z,83.28
2023-02-24T06:49:23.835Z,83.57
2023-02-24T06:50:26.150Z,83.54
2023-02-24T06:51:28.253Z,83.63
2023-02-24T06:52:30.128Z,83.62
2023-02-24T06:53:34.955Z,83.57
2023-02-24T06:54:37.293Z,83.45
2023-02-24T06:55:39.152Z,83.57
2023-02-24T06:56:41.441Z,83.77
2023-02-24T06:57:43.407Z,83.84
2023-02-24T06:58:48.157Z,84.12
2023-02-24T06:59:50.373Z,84.19
2023-02-24T07:00:52.422Z,84.19
2023-02-24T07:01:55.926Z,84.21
2023-02-24T07:02:57.945Z,84.11
2023-02-24T07:04:01.690Z,83.97
2023-02-24T07:05:05.569Z,83.92
2023-02-24T07:06:10.443Z,83.88
2023-02-24T07:07:13.057Z,83.83
2023-02-24T07:08:17.447Z,84.04
2023-02-24T07:09:22.914Z,83.97
2023-02-24T07:10:25.567Z,83.95
2023-02-24T07:11:28.583Z,83.97
2023-02-24T07:12:30.594Z,83.96
2023-02-24T07:13:33.235Z,83.86
2023-02-24T07:14:36.970Z,83.99
2023-02-24T07:15:38.969Z,84.01
2023-02-24T07:16:42.747Z,84.22
2023-02-24T07:17:46.145Z,83.99
2023-02-24T07:18:48.629Z,84.12
2023-02-24T07:19:50.516Z,84.09
2023-02-24T07:20:52.621Z,84.08
2023-02-24T07:21:56.822Z,84.24
2023-02-24T07:22:58.849Z,84.39
2023-02-24T07:24:00.853Z,84.41
2023-02-24T07:25:03.932Z,84.52
2023-02-24T07:26:09.345Z,84.16
2023-02-24T07:27:14.400Z,84.15
2023-02-24T07:28:16.319Z,84.11
2023-02-24T07:29:18.236Z,84.01
2023-02-24T07:30:20.433Z,83.91
2023-02-24T07:31:26.435Z,84.04
2023-02-24T07:32:28.675Z,84.30
2023-02-24T07:33:30.753Z,84.29
2023-02-24T07:34:33.388Z,84.06
2023-02-24T07:35:35.545Z,83.94
2023-02-24T07:36:37.706Z,84.08
2023-02-24T07:37:39.974Z,83.96
2023-02-24T07:38:42.860Z,83.77
2023-02-24T07:39:44.845Z,84.04
2023-02-24T07:40:46.929Z,84.30
2023-02-24T07:41:53.308Z,84.31
2023-02-24T07:42:56.418Z,84.24
2023-02-24T07:43:58.320Z,84.20
2023-02-24T07:45:00.251Z,84.17
2023-02-24T07:46:17.188Z,84.06
2023-02-24T07:47:19.178Z,84.01
2023-02-24T07:48:21.202Z,84.05
2023-02-24T07:49:24.077Z,84.27
2023-02-24T07:50:27.570Z,84.18
2023-02-24T07:51:30.261Z,84.29
2023-02-24T07:52:32.161Z,84.03
2023-02-24T07:53:35.368Z,84.03
2023-02-24T07:54:37.429Z,84.20
2023-02-24T07:55:39.393Z,84.18
2023-02-24T07:56:41.660Z,83.94
2023-02-24T07:57:45.841Z,84.03
2023-02-24T07:58:48.892Z,83.86
2023-02-24T07:59:50.801Z,83.67
2023-02-24T08:00:52.788Z,83.75
2023-02-24T08:01:55.206Z,83.39
2023-02-24T08:02:58.036Z,83.44
2023-02-24T08:04:00.722Z,83.33
2023-02-24T08:05:02.889Z,83.66
2023-02-24T08:06:05.261Z,83.37
2023-02-24T08:07:07.233Z,83.52
2023-02-24T08:08:09.140Z,83.62
2023-02-24T08:09:15.741Z,83.94
2023-02-24T08:10:19.355Z,83.59
2023-02-24T08:11:21.508Z,83.92
2023-02-24T08:12:23.876Z,83.48
2023-02-24T08:13:26.140Z,83.77
2023-02-24T08:14:29.398Z,83.93
2023-02-24T08:15:31.574Z,83.51
2023-02-24T08:16:33.876Z,83.28
2023-02-24T08:17:35.796Z,83.24
2023-02-24T08:18:37.762Z,83.44
2023-02-24T08:19:39.815Z,83.49
2023-02-24T08:20:41.874Z,83.56
2023-02-24T08:21:43.775Z,83.93
2023-02-24T08:22:48.163Z,83.92
2023-02-24T08:23:50.408Z,83.60
2023-02-24T08:24:57.060Z,83.21
2023-02-24T08:26:01.794Z,83.24
2023-02-24T08:27:03.929Z,83.37
2023-02-24T08:28:09.915Z,83.68
2023-02-24T08:29:12.193Z,83.71
2023-02-24T08:30:15.481Z,83.39
2023-02-24T08:31:17.563Z,83.82
2023-02-24T08:32:20.789Z,83.63
2023-02-24T08:33:23.552Z,83.88
2023-02-24T08:34:25.655Z,83.98
2023-02-24T08:35:30.513Z,83.93
2023-02-24T08:36:32.946Z,84.26
2023-02-24T08:37:35.045Z,84.60
2023-02-24T08:38:36.973Z,84.26
2023-02-24T08:39:38.884Z,84.09
2023-02-24T08:40:44.975Z,83.97
2023-02-24T08:41:47.401Z,84.11
2023-02-24T08:42:49.410Z,84.05
2023-02-24T08:43:51.302Z,84.23
2023-02-24T08:44:53.176Z,84.33
2023-02-24T08:45:58.337Z,84.52
2023-02-24T08:47:01.268Z,84.40
2023-02-24T08:48:04.356Z,84.00
2023-02-24T08:49:06.333Z,84.36
2023-02-24T08:50:10.119Z,84.11
2023-02-24T08:51:21.913Z,84.06
2023-02-24T08:52:26.198Z,83.83
2023-02-24T08:53:28.406Z,83.81
2023-02-24T08:54:30.331Z,84.11
2023-02-24T08:55:32.211Z,84.11
2023-02-24T08:56:34.205Z,84.08
2023-02-24T08:57:36.141Z,84.13
2023-02-24T08:58:41.517Z,84.24
2023-02-24T08:59:43.565Z,84.21
2023-02-24T09:00:46.308Z,84.23
2023-02-24T09:01:59.506Z,84.31
2023-02-24T09:02:53.122Z,84.49
2023-02-24T09:03:58.576Z,84.46
2023-02-24T09:05:03.404Z,84.54
2023-02-24T09:06:08.399Z,84.45
2023-02-24T09:07:23.007Z,84.37
2023-02-24T09:08:27.117Z,84.12
2023-02-24T09:09:29.069Z,84.32
2023-02-24T09:10:31.262Z,84.25
2023-02-24T09:11:33.135Z,84.35
2023-02-24T09:12:35.373Z,84.37
2023-02-24T09:13:38.777Z,84.84
2023-02-24T09:14:40.815Z,84.55
2023-02-24T09:15:42.686Z,84.28
2023-02-24T09:16:47.444Z,84.10
2023-02-24T09:17:49.360Z,84.51
2023-02-24T09:18:51.680Z,84.30
2023-02-24T09:19:53.779Z,84.30
2023-02-24T09:20:56.627Z,84.61
2023-02-24T09:21:58.604Z,84.47
2023-02-24T09:23:01.112Z,84.58
2023-02-24T09:24:03.938Z,84.55
2023-02-24T09:25:09.652Z,84.52
2023-02-24T09:26:14.971Z,84.54
2023-02-24T09:27:17.112Z,84.74
2023-02-24T09:28:25.133Z,84.75
2023-02-24T09:29:27.774Z,84.45
2023-02-24T09:30:30.176Z,84.55
2023-02-24T09:31:37.768Z,84.44
2023-02-24T09:32:39.643Z,84.07
2023-02-24T09:33:43.433Z,84.53
2023-02-24T09:34:45.390Z,84.41
2023-02-24T09:35:53.661Z,84.42
2023-02-24T09:36:55.797Z,84.60
2023-02-24T09:37:57.899Z,84.64
2023-02-24T09:39:00.354Z,84.78
2023-02-24T09:40:03.269Z,84.73
2023-02-24T09:42:39.115Z,84.69
2023-02-24T09:43:42.283Z,84.80
2023-02-24T09:44:47.645Z,84.83
2023-02-24T09:45:59.802Z,84.69
2023-02-24T09:47:11.423Z,84.94
2023-02-24T09:48:16.775Z,84.95
2023-02-24T09:49:22.061Z,85.10
2023-02-24T09:50:59.095Z,84.72
2023-02-24T09:51:32.983Z,84.48
2023-02-24T09:52:35.088Z,84.59
2023-02-24T09:53:39.559Z,84.52
2023-02-24T09:54:42.651Z,84.83
2023-02-24T09:56:00.462Z,84.59
2023-02-24T09:57:06.341Z,84.79
2023-02-24T09:58:29.370Z,84.62
2023-02-24T09:59:40.540Z,85.05
2023-02-24T10:00:52.242Z,85.02
2023-02-24T10:02:19.678Z,84.98
2023-02-24T10:03:34.501Z,85.03
2023-02-24T10:04:49.006Z,84.94
2023-02-24T10:07:13.881Z,84.94
2023-02-24T10:08:19.540Z,84.78
2023-02-24T10:09:40.284Z,84.64
2023-02-24T10:10:43.137Z,84.87
2023-02-24T10:11:49.357Z,84.83
2023-02-24T10:12:55.043Z,84.90
2023-02-24T10:14:03.395Z,84.99
2023-02-24T10:15:07.052Z,85.22
2023-02-24T10:16:14.568Z,85.24
2023-02-24T10:17:23.031Z,85.43
2023-02-24T10:18:46.541Z,84.96
2023-02-24T10:19:54.008Z,85.06
2023-02-24T10:21:16.731Z,84.84
2023-02-24T10:22:25.540Z,84.97
2023-02-24T10:23:34.004Z,84.96
2023-02-24T10:24:44.410Z,85.07
2023-02-24T10:27:16.758Z,84.93
2023-02-24T10:28:20.611Z,84.60
2023-02-24T10:29:32.438Z,84.74
2023-02-24T10:30:50.300Z,84.61
2023-02-24T10:32:12.976Z,84.58
2023-02-24T10:33:33.686Z,84.35
2023-02-24T10:34:35.671Z,84.66
2023-02-24T10:35:37.577Z,84.50
2023-02-24T10:36:39.692Z,84.37
2023-02-24T10:37:42.338Z,84.25
2023-02-24T10:38:45.027Z,84.11
2023-02-24T10:39:51.484Z,83.87
2023-02-24T10:40:54.299Z,83.68
2023-02-24T10:42:01.973Z,83.53
2023-02-24T10:43:06.766Z,84.22
2023-02-24T10:44:09.014Z,84.43
2023-02-24T10:45:18.591Z,84.17
2023-02-24T10:46:40.006Z,83.86
2023-02-24T10:47:34.543Z,83.88
2023-02-24T10:48:41.722Z,84.13
2023-02-24T10:49:46.278Z,83.85
2023-02-24T10:50:55.966Z,84.21
2023-02-24T10:51:53.308Z,84.30
2023-02-24T10:53:07.786Z,84.21
2023-02-24T10:54:13.784Z,84.46
2023-02-24T10:55:25.467Z,84.14
2023-02-24T10:56:27.787Z,84.21
2023-02-24T10:57:30.696Z,84.30
2023-02-24T10:58:35.326Z,84.15
2023-02-24T10:59:44.222Z,84.16
2023-02-24T11:00:48.866Z,84.13
2023-02-24T11:01:54.691Z,83.85
2023-02-24T11:02:56.796Z,83.64
2023-02-24T11:04:02.383Z,83.69
2023-02-24T11:05:08.543Z,83.85
2023-02-24T11:06:24.062Z,83.86
2023-02-24T11:07:27.418Z,83.99
2023-02-24T11:08:31.603Z,83.61
2023-02-24T11:09:33.687Z,83.85
2023-02-24T11:10:41.720Z,83.47
2023-02-24T11:11:45.749Z,83.70
2023-02-24T11:12:51.665Z,83.66
2023-02-24T11:13:54.613Z,83.80
2023-02-24T11:14:59.526Z,83.79
2023-02-24T11:16:01.718Z,83.58
2023-02-24T11:17:04.262Z,84.22
2023-02-24T11:18:07.159Z,83.96
2023-02-24T11:19:11.184Z,84.04
2023-02-24T11:20:47.424Z,84.04
2023-02-24T11:21:37.432Z,83.98
2023-02-24T11:22:42.555Z,84.09
2023-02-24T11:23:47.616Z,84.59
2023-02-24T11:24:51.118Z,84.82
2023-02-24T11:26:02.239Z,84.66
2023-02-24T11:27:05.500Z,84.62
2023-02-24T11:28:26.385Z,84.91
2023-02-24T11:30:04.177Z,84.77
2023-02-24T11:31:13.176Z,84.49
2023-02-24T11:32:40.705Z,84.41
2023-02-24T11:34:10.926Z,84.91
2023-02-24T11:35:16.632Z,85.29
2023-02-24T11:36:31.322Z,85.45
2023-02-24T11:37:45.920Z,85.18
2023-02-24T11:39:23.570Z,85.24
2023-02-24T11:41:43.473Z,85.18
2023-02-24T11:43:04.872Z,84.92
2023-02-24T11:44:15.130Z,85.24
2023-02-24T11:45:33.284Z,84.71
2023-02-24T11:46:42.368Z,84.99
2023-02-24T11:47:49.590Z,84.97
2023-02-24T11:48:55.303Z,85.08
2023-02-24T11:50:05.253Z,84.90
2023-02-24T11:51:20.316Z,84.99
2023-02-24T11:52:26.393Z,85.23
2023-02-24T11:53:35.274Z,85.28
2023-02-24T11:54:41.048Z,85.13
2023-02-24T11:55:49.531Z,85.23
2023-02-24T11:56:56.672Z,85.56
2023-02-24T11:58:02.245Z,85.46
2023-02-24T11:59:14.419Z,85.62
2023-02-24T12:00:22.334Z,85.57
2023-02-24T12:01:30.688Z,85.54
2023-02-24T12:02:39.225Z,85.40
2023-02-24T12:03:53.812Z,84.95
2023-02-24T12:05:18.065Z,85.11
2023-02-24T12:06:24.000Z,84.87
2023-02-24T12:07:38.505Z,85.18
2023-02-24T12:08:45.218Z,85.31
2023-02-24T12:09:51.077Z,85.34
2023-02-24T12:11:13.574Z,85.57
2023-02-24T12:12:25.489Z,85.32
2023-02-24T12:14:42.406Z,85.54
2023-02-24T12:16:00.225Z,85.40
2023-02-24T12:17:15.319Z,85.13
2023-02-24T12:18:26.929Z,85.03
2023-02-24T12:19:38.505Z,85.29
2023-02-24T12:20:44.355Z,85.11
2023-02-24T12:23:32.203Z,85.57
2023-02-24T12:24:36.875Z,85.02
2023-02-24T12:26:58.625Z,85.22
2023-02-24T12:28:25.753Z,85.23
2023-02-24T12:29:46.719Z,84.95
2023-02-24T12:31:04.662Z,85.04
2023-02-24T12:32:31.918Z,84.90
2023-02-24T12:33:59.171Z,85.12
2023-02-24T12:35:34.015Z,85.21
2023-02-24T12:36:50.332Z,85.41
2023-02-24T12:38:05.177Z,85.15
2023-02-24T12:39:14.161Z,85.26
2023-02-24T12:40:20.066Z,85.35
2023-02-24T12:41:49.024Z,85.49
2023-02-24T12:43:03.832Z,85.36
2023-02-24T12:44:24.299Z,85.47
2023-02-24T12:45:39.024Z,85.35
2023-02-24T12:46:43.563Z,85.43
2023-02-24T12:48:10.133Z,85.22
2023-02-24T12:49:47.922Z,85.39
2023-02-24T12:51:02.496Z,85.49
2023-02-24T12:52:17.465Z,85.97
2023-02-24T12:53:32.265Z,85.92
2023-02-24T12:54:39.969Z,85.89
2023-02-24T12:55:57.944Z,86.03
2023-02-24T12:57:18.469Z,86.16
2023-02-24T12:58:27.102Z,85.88
2023-02-24T12:59:32.825Z,86.04
2023-02-24T13:00:50.346Z,85.82
2023-02-24T13:02:04.510Z,85.47
2023-02-24T13:04:24.278Z,85.73
2023-02-24T13:05:35.911Z,85.51
2023-02-24T13:06:57.157Z,85.87
2023-02-24T13:08:29.773Z,85.69
2023-02-24T13:09:38.601Z,85.77
2023-02-24T13:10:47.438Z,86.19
2023-02-24T13:11:55.766Z,85.95
2023-02-24T13:13:01.643Z,85.88
2023-02-24T13:14:10.550Z,86.08
2023-02-24T13:15:17.299Z,85.83
2023-02-24T13:16:31.868Z,85.73
2023-02-24T13:17:35.732Z,85.80
2023-02-24T13:18:38.365Z,86.07
2023-02-24T13:19:43.725Z,85.75
2023-02-24T13:20:45.989Z,85.78
2023-02-24T13:22:03.047Z,85.91
2023-02-24T13:23:08.782Z,86.06
2023-02-24T13:24:22.721Z,86.15
2023-02-24T13:25:36.519Z,86.19
2023-02-24T13:26:39.194Z,86.38
2023-02-24T13:27:42.393Z,86.32
2023-02-24T13:28:44.364Z,86.46
2023-02-24T13:29:49.609Z,86.43
2023-02-24T13:31:12.986Z,86.19
2023-02-24T13:32:34.333Z,86.05
2023-02-24T13:33:41.913Z,86.07
2023-02-24T13:34:46.084Z,86.53
2023-02-24T13:35:51.957Z,86.45
2023-02-24T13:36:54.733Z,86.43
2023-02-24T13:38:00.572Z,86.60
2023-02-24T13:39:06.138Z,86.40
2023-02-24T13:40:20.853Z,86.31
2023-02-24T13:41:29.530Z,86.81
2023-02-24T13:42:31.706Z,86.89
2023-02-24T13:43:33.987Z,86.55
2023-02-24T13:44:40.584Z,86.65
2023-02-24T13:45:46.680Z,86.34
2023-02-24T13:47:26.152Z,86.46
2023-02-24T13:48:57.663Z,86.78
2023-02-24T13:50:24.300Z,86.61
2023-02-24T13:51:48.440Z,86.89
2023-02-24T13:53:12.283Z,86.91
2023-02-24T13:54:26.996Z,87.37
2023-02-24T13:55:48.492Z,87.68
2023-02-24T13:56:54.501Z,87.77
2023-02-24T13:58:18.260Z,87.79
2023-02-24T13:59:42.284Z,87.68
2023-02-24T14:01:10.111Z,87.85
2023-02-24T14:02:18.712Z,87.68
2023-02-24T14:03:26.973Z,87.74
2023-02-24T14:04:35.403Z,87.50
2023-02-24T14:05:40.342Z,87.85
2023-02-24T14:06:49.546Z,87.98
2023-02-24T14:07:53.325Z,87.99
2023-02-24T14:08:59.050Z,87.80
2023-02-24T14:10:07.860Z,87.82
2023-02-24T14:11:13.537Z,87.74
2023-02-24T14:12:19.567Z,87.70
2023-02-24T14:13:25.348Z,87.53
2023-02-24T14:14:29.414Z,87.27
2023-02-24T14:15:32.965Z,87.56
2023-02-24T14:16:39.382Z,87.70
2023-02-24T14:17:42.043Z,87.58
2023-02-24T14:18:48.433Z,87.71
2023-02-24T14:19:50.377Z,87.68
2023-02-24T14:20:54.709Z,87.58
2023-02-24T14:21:58.726Z,87.70
2023-02-24T14:23:01.558Z,87.63
2023-02-24T14:24:12.649Z,87.85
2023-02-24T14:25:15.924Z,87.88
2023-02-24T14:26:19.617Z,87.78
2023-02-24T14:27:26.928Z,87.80
2023-02-24T14:28:35.485Z,88.01
2023-02-24T14:29:44.235Z,88.10
2023-02-24T14:30:45.336Z,88.24
2023-02-24T14:31:51.434Z,88.26
2023-02-24T14:32:54.532Z,88.39
2023-02-24T14:34:00.082Z,88.28
2023-02-24T14:35:02.818Z,88.42
2023-02-24T14:36:08.808Z,88.52
2023-02-24T14:37:11.504Z,88.34